createdAt,value
2023-02-13T00:00:52.914Z,11.30
2023-02-13T00:03:21.155Z,11.40
2023-02-13T00:05:49.023Z,11.30
2023-02-13T00:08:16.985Z,11.30
2023-02-13T00:10:44.932Z,11.30
2023-02-13T00:13:14.725Z,11.30
2023-02-13T00:15:42.599Z,11.30
2023-02-13T00:18:10.416Z,11.30
2023-02-13T00:20:38.214Z,11.30
2023-02-13T00:23:08.908Z,11.30
2023-02-13T00:25:36.707Z,12.20
2023-02-13T00:28:04.824Z,11.30
2023-02-13T00:30:34.038Z,11.30
2023-02-13T00:33:01.888Z,11.30
2023-02-13T00:35:29.832Z,11.30
2023-02-13T00:37:58.257Z,11.30
2023-02-13T00:40:26.612Z,11.30
2023-02-13T00:42:54.477Z,11.30
2023-02-13T00:45:22.866Z,11.30
2023-02-13T00:47:52.307Z,11.30
2023-02-13T00:50:20.331Z,11.30
2023-02-13T00:52:48.178Z,11.30
2023-02-13T00:55:16.408Z,11.30
2023-02-13T00:57:44.654Z,11.30
2023-02-13T01:00:13.664Z,11.30
2023-02-13T01:02:41.501Z,11.20
2023-02-13T01:05:10.994Z,11.20
2023-02-13T01:07:38.794Z,11.20
2023-02-13T01:10:09.679Z,11.20
2023-02-13T01:12:37.511Z,11.20
2023-02-13T01:15:06.910Z,11.20
2023-02-13T01:17:34.815Z,11.20
2023-02-13T01:20:02.680Z,11.20
2023-02-13T01:22:31.886Z,11.20
2023-02-13T01:24:59.762Z,11.20
2023-02-13T01:27:29.522Z,11.20
2023-02-13T01:29:57.538Z,11.20
2023-02-13T01:32:26.045Z,11.20
2023-02-13T01:34:53.986Z,11.20
2023-02-13T01:37:22.100Z,11.20
2023-02-13T01:39:51.781Z,11.10
2023-02-13T01:42:25.674Z,11.10
2023-02-13T01:44:55.239Z,10.20
2023-02-13T01:47:27.678Z,11.10
2023-02-13T01:50:07.223Z,11.10
2023-02-13T01:52:36.972Z,11.10
2023-02-13T01:55:10.129Z,11.10
2023-02-13T01:57:40.341Z,11.10
2023-02-13T02:00:11.013Z,11.10
2023-02-13T02:02:45.993Z,11.10
2023-02-13T02:05:16.146Z,11.10
2023-02-13T02:07:46.659Z,11.10
2023-02-13T02:10:19.568Z,11.10
2023-02-13T02:12:53.199Z,11.10
2023-02-13T02:15:21.830Z,11.10
2023-02-13T02:17:49.628Z,11.10
2023-02-13T02:20:30.573Z,11.10
2023-02-13T02:23:48.085Z,11.10
2023-02-13T02:27:06.693Z,8.70
2023-02-13T02:30:10.754Z,11.10
2023-02-13T02:32:58.561Z,11.50
2023-02-13T02:35:35.538Z,11.10
2023-02-13T02:38:14.423Z,11.10
2023-02-13T02:40:55.335Z,11.00
2023-02-13T02:43:31.558Z,11.00
2023-02-13T02:46:09.667Z,11.00
2023-02-13T02:49:02.626Z,10.00
2023-02-13T02:51:39.279Z,11.30
2023-02-13T02:54:28.267Z,11.00
2023-02-13T02:57:06.855Z,11.00
2023-02-13T02:59:54.745Z,11.00
2023-02-13T03:02:41.820Z,11.00
2023-02-13T03:05:37.955Z,11.00
2023-02-13T03:08:07.696Z,11.00
2023-02-13T03:10:56.470Z,11.00
2023-02-13T03:13:40.894Z,11.00
2023-02-13T03:16:34.548Z,11.00
2023-02-13T03:19:20.319Z,11.00
2023-02-13T03:22:14.628Z,11.00
2023-02-13T03:24:51.372Z,11.00
2023-02-13T03:27:49.121Z,11.00
2023-02-13T03:30:25.947Z,10.90
2023-02-13T03:33:09.092Z,11.00
2023-02-13T03:36:04.633Z,11.00
2023-02-13T03:38:44.075Z,11.00
2023-02-13T03:41:19.556Z,11.00
2023-02-13T03:43:57.352Z,11.00
2023-02-13T03:46:27.034Z,10.90
2023-02-13T03:49:13.716Z,10.90
2023-02-13T03:51:48.504Z,10.90
2023-02-13T03:54:37.766Z,10.90
2023-02-13T03:57:23.461Z,11.60
2023-02-13T03:59:51.465Z,11.00
2023-02-13T04:02:23.683Z,11.00
2023-02-13T04:05:02.742Z,11.00
2023-02-13T04:07:31.901Z,10.90
2023-02-13T04:10:08.506Z,11.00
2023-02-13T04:12:47.352Z,11.00
2023-02-13T04:15:18.383Z,11.00
2023-02-13T04:17:51.137Z,11.00
2023-02-13T04:20:20.033Z,11.00
2023-02-13T04:22:49.224Z,11.00
2023-02-13T04:25:19.639Z,11.00
2023-02-13T04:27:47.845Z,11.00
2023-02-13T04:30:16.432Z,11.00
2023-02-13T04:32:44.540Z,11.00
2023-02-13T04:35:13.766Z,11.00
2023-02-13T04:37:41.711Z,11.00
2023-02-13T04:40:11.289Z,11.00
2023-02-13T04:42:40.566Z,11.00
2023-02-13T04:45:09.130Z,11.00
2023-02-13T04:47:36.963Z,11.00
2023-02-13T04:50:05.190Z,11.00
2023-02-13T04:52:33.214Z,11.00
2023-02-13T04:55:01.058Z,11.00
2023-02-13T04:57:29.223Z,11.00
2023-02-13T04:59:58.380Z,11.00
2023-02-13T05:02:26.378Z,11.00
2023-02-13T05:04:54.246Z,11.00
2023-02-13T05:07:22.326Z,11.00
2023-02-13T05:09:50.231Z,10.30
2023-02-13T05:12:18.021Z,11.00
2023-02-13T05:14:45.932Z,11.00
2023-02-13T05:17:15.546Z,11.00
2023-02-13T05:19:46.524Z,11.00
2023-02-13T05:22:32.030Z,11.00
2023-02-13T05:24:59.868Z,11.00
2023-02-13T05:27:27.756Z,11.00
2023-02-13T05:29:55.606Z,11.00
2023-02-13T05:32:24.867Z,11.00
2023-02-13T05:34:52.841Z,11.00
2023-02-13T05:37:20.697Z,10.90
2023-02-13T05:39:48.673Z,10.90
2023-02-13T05:42:16.493Z,10.90
2023-02-13T05:44:44.593Z,10.90
2023-02-13T05:47:12.471Z,10.90
2023-02-13T05:49:41.595Z,10.90
2023-02-13T05:52:09.432Z,10.90
2023-02-13T05:54:38.422Z,10.90
2023-02-13T05:57:06.774Z,10.90
2023-02-13T05:59:34.602Z,13.40
2023-02-13T06:02:04.855Z,10.90
2023-02-13T06:04:32.704Z,10.90
2023-02-13T06:07:01.910Z,10.90
2023-02-13T06:09:29.880Z,10.90
2023-02-13T06:11:57.745Z,10.90
2023-02-13T06:14:25.651Z,10.90
2023-02-13T06:16:53.506Z,10.90
2023-02-13T06:19:21.489Z,10.90
2023-02-13T06:21:49.367Z,10.90
2023-02-13T06:24:18.808Z,10.90
2023-02-13T06:26:46.939Z,10.90
2023-02-13T06:29:14.900Z,10.90
2023-02-13T06:31:42.798Z,10.90
2023-02-13T06:34:10.670Z,10.90
2023-02-13T06:36:38.487Z,10.90
2023-02-13T06:39:07.195Z,11.00
2023-02-13T06:41:36.349Z,11.00
2023-02-13T06:44:07.906Z,11.00
2023-02-13T06:46:36.327Z,11.00
2023-02-13T06:49:04.765Z,11.00
2023-02-13T06:51:32.614Z,11.00
2023-02-13T06:54:00.433Z,12.30
2023-02-13T06:56:28.265Z,11.00
2023-02-13T06:58:57.589Z,11.00
2023-02-13T07:01:25.524Z,11.10
2023-02-13T07:03:53.428Z,11.00
2023-02-13T07:06:22.510Z,11.00
2023-02-13T07:08:55.147Z,11.00
2023-02-13T07:11:25.431Z,11.00
2023-02-13T07:13:54.193Z,11.00
2023-02-13T07:16:23.563Z,11.00
2023-02-13T07:18:51.581Z,11.00
2023-02-13T07:21:19.451Z,11.00
2023-02-13T07:23:47.400Z,11.00
2023-02-13T07:26:17.289Z,11.00
2023-02-13T07:28:47.901Z,11.00
2023-02-13T07:31:16.519Z,11.00
2023-02-13T07:33:45.797Z,11.00
2023-02-13T07:36:13.701Z,11.00
2023-02-13T07:38:41.585Z,11.00
2023-02-13T07:41:10.088Z,11.00
2023-02-13T07:43:37.933Z,11.00
2023-02-13T07:46:06.828Z,11.00
2023-02-13T07:48:34.745Z,11.00
2023-02-13T07:51:05.859Z,11.00
2023-02-13T07:53:33.753Z,11.00
2023-02-13T07:56:06.812Z,11.00
2023-02-13T07:58:34.691Z,11.00
2023-02-13T08:01:09.122Z,11.10
2023-02-13T08:03:37.072Z,11.10
2023-02-13T08:06:07.365Z,11.10
2023-02-13T08:08:35.519Z,11.10
2023-02-13T08:11:25.774Z,11.10
2023-02-13T08:13:53.663Z,11.10
2023-02-13T08:16:21.678Z,11.40
2023-02-13T08:18:49.489Z,11.10
2023-02-13T08:21:18.707Z,11.20
2023-02-13T08:23:48.657Z,11.20
2023-02-13T08:26:16.526Z,11.20
2023-02-13T08:28:44.725Z,11.20
2023-02-13T08:31:15.154Z,11.30
2023-02-13T08:33:43.028Z,11.30
2023-02-13T08:36:11.180Z,11.30
2023-02-13T08:41:13.152Z,11.40
2023-02-13T08:43:41.148Z,11.40
2023-02-13T08:46:09.012Z,11.50
2023-02-13T08:48:36.816Z,11.50
2023-02-13T08:51:07.728Z,11.50
2023-02-13T11:50:53.785Z,14.30
2023-02-13T11:53:26.309Z,14.30
2023-02-13T11:56:07.229Z,14.40
2023-02-13T11:58:35.562Z,14.50
2023-02-13T12:01:26.449Z,14.50
2023-02-13T12:04:08.669Z,14.60
2023-02-13T12:06:40.460Z,14.60
2023-02-13T12:09:16.516Z,14.60
2023-02-13T12:11:49.455Z,14.70
2023-02-13T12:14:21.633Z,14.70
2023-02-13T12:16:52.797Z,14.80
2023-02-13T12:19:25.319Z,14.80
2023-02-13T12:22:19.801Z,14.90
2023-02-13T12:25:15.909Z,14.90
2023-02-13T12:27:51.970Z,15.00
2023-02-13T12:30:41.535Z,15.00
2023-02-13T12:33:24.829Z,15.10
2023-02-13T12:36:02.203Z,15.10
2023-02-13T12:38:48.114Z,15.10
2023-02-13T12:41:23.845Z,15.10
2023-02-13T12:44:17.196Z,15.20
2023-02-13T12:46:53.744Z,15.20
2023-02-13T12:49:42.996Z,15.20
2023-02-13T12:52:28.712Z,15.30
2023-02-13T12:55:10.712Z,15.30
2023-02-13T12:57:53.688Z,15.30
2023-02-13T13:00:36.498Z,15.40
2023-02-13T13:03:20.145Z,15.40
2023-02-13T13:06:11.857Z,15.60
2023-02-13T13:08:59.946Z,15.50
2023-02-13T13:11:47.933Z,15.50
2023-02-13T13:14:26.685Z,15.50
2023-02-13T13:17:01.852Z,15.00
2023-02-13T13:19:38.270Z,15.60
2023-02-13T13:22:16.013Z,15.70
2023-02-13T13:24:54.454Z,15.70
2023-02-13T13:27:26.327Z,15.80
2023-02-13T13:29:59.746Z,15.80
2023-02-13T13:32:28.872Z,15.80
2023-02-13T13:34:58.583Z,15.90
2023-02-13T13:37:34.330Z,15.90
2023-02-13T13:40:17.633Z,15.90
2023-02-13T13:42:53.316Z,16.00
2023-02-13T13:45:31.505Z,16.10
2023-02-13T13:48:17.998Z,16.10
2023-02-13T13:50:48.967Z,16.10
2023-02-13T13:53:19.377Z,16.10
2023-02-13T13:56:10.311Z,16.20
2023-02-13T13:58:41.472Z,16.30
2023-02-13T14:01:25.496Z,16.40
2023-02-13T14:03:55.699Z,16.40
2023-02-13T14:06:25.789Z,16.60
2023-02-13T14:09:23.384Z,16.70
2023-02-13T14:11:51.368Z,16.80
2023-02-13T14:14:49.146Z,16.90
2023-02-13T14:17:42.402Z,17.00
2023-02-13T14:20:27.555Z,17.10
2023-02-13T14:22:55.637Z,17.20
2023-02-13T14:25:25.902Z,17.30
2023-02-13T14:28:00.522Z,17.40
2023-02-13T14:30:31.735Z,17.50
2023-02-13T14:33:07.230Z,17.60
2023-02-13T14:35:37.724Z,17.70
2023-02-13T14:38:08.063Z,17.80
2023-02-13T14:40:54.459Z,17.90
2023-02-13T14:43:40.466Z,18.20
2023-02-13T14:46:17.130Z,18.00
2023-02-13T14:48:51.988Z,18.10
2023-02-13T14:51:34.740Z,18.20
2023-02-13T14:54:08.193Z,18.10
2023-02-13T14:56:39.852Z,18.10
2023-02-13T14:59:15.047Z,18.00
2023-02-13T15:01:52.874Z,17.90
2023-02-13T15:04:28.754Z,17.80
2023-02-13T15:06:58.834Z,17.60
2023-02-13T15:09:33.181Z,17.50
2023-02-13T15:12:01.739Z,17.30
2023-02-13T15:14:34.553Z,17.20
2023-02-13T15:17:09.913Z,17.00
2023-02-13T15:19:45.842Z,16.90
2023-02-13T15:22:20.576Z,16.80
2023-02-13T15:24:50.031Z,16.60
2023-02-13T15:27:21.958Z,16.60
2023-02-13T15:29:59.662Z,16.70
2023-02-13T15:32:31.319Z,16.70
2023-02-13T15:35:00.952Z,16.90
2023-02-13T15:37:30.600Z,17.00
2023-02-13T15:40:17.419Z,17.10
2023-02-13T15:42:46.999Z,17.20
2023-02-13T15:45:17.278Z,17.40
2023-02-13T15:47:47.338Z,17.30
2023-02-13T15:50:25.312Z,17.30
2023-02-13T15:52:54.123Z,17.20
2023-02-13T15:55:24.637Z,17.10
2023-02-13T15:57:55.406Z,17.00
2023-02-13T16:00:27.339Z,17.20
2023-02-13T16:02:57.033Z,16.80
2023-02-13T16:05:39.336Z,16.70
2023-02-13T16:08:28.932Z,16.60
2023-02-13T16:11:20.828Z,16.40
2023-02-13T16:14:18.250Z,16.30
2023-02-13T16:16:50.788Z,16.20
2023-02-13T16:19:25.334Z,16.10
2023-02-13T16:21:56.796Z,16.00
2023-02-13T16:24:25.607Z,15.90
2023-02-13T16:26:54.197Z,15.70
2023-02-13T16:29:25.747Z,15.60
2023-02-13T16:31:55.643Z,15.50
2023-02-13T16:34:26.515Z,15.40
2023-02-13T16:36:56.985Z,15.30
2023-02-13T16:39:29.951Z,15.20
2023-02-13T16:41:58.557Z,15.60
2023-02-13T16:44:29.570Z,15.10
2023-02-13T16:47:01.421Z,15.00
2023-02-13T16:49:32.620Z,14.90
2023-02-13T16:52:11.559Z,14.90
2023-02-13T16:54:49.790Z,14.80
2023-02-13T16:57:21.968Z,14.80
2023-02-13T16:59:57.541Z,14.70
2023-02-13T17:02:27.627Z,14.70
2023-02-13T17:04:57.518Z,14.60
2023-02-13T17:07:28.804Z,14.60
2023-02-13T17:10:02.144Z,14.50
2023-02-13T17:12:31.985Z,14.50
2023-02-13T17:15:00.411Z,14.50
2023-02-13T17:17:30.633Z,14.40
2023-02-13T17:19:59.173Z,14.40
2023-02-13T17:22:34.178Z,14.40
2023-02-13T17:25:03.732Z,14.30
2023-02-13T17:27:31.591Z,14.30
2023-02-13T17:29:59.515Z,14.20
2023-02-13T17:32:28.559Z,14.20
2023-02-13T17:34:56.473Z,14.20
2023-02-13T17:37:26.520Z,14.10
2023-02-13T17:39:55.906Z,14.10
2023-02-13T17:42:25.865Z,14.10
2023-02-13T17:44:54.434Z,14.00
2023-02-13T17:47:22.823Z,13.90
2023-02-13T17:49:51.530Z,13.90
2023-02-13T17:52:23.034Z,13.80
2023-02-13T17:54:51.224Z,13.80
2023-02-13T17:57:20.751Z,13.80
2023-02-13T17:59:48.878Z,13.70
2023-02-13T18:02:19.185Z,13.60
2023-02-13T18:04:51.159Z,13.60
2023-02-13T18:07:21.067Z,13.50
2023-02-13T18:09:49.012Z,13.50
2023-02-13T18:12:19.525Z,13.40
2023-02-13T18:14:49.666Z,13.40
2023-02-13T18:17:18.702Z,13.30
2023-02-13T18:19:47.285Z,13.20
2023-02-13T18:22:15.696Z,13.20
2023-02-13T18:24:44.092Z,13.10
2023-02-13T18:27:12.317Z,13.00
2023-02-13T18:29:40.592Z,13.00
2023-02-13T18:32:11.758Z,13.00
2023-02-13T18:34:40.800Z,12.90
2023-02-13T18:37:09.571Z,12.80
2023-02-13T18:39:37.532Z,12.80
2023-02-13T18:42:08.492Z,12.70
2023-02-13T18:44:36.701Z,12.70
2023-02-13T18:47:04.875Z,12.60
2023-02-13T18:49:34.183Z,12.60
2023-02-13T18:52:02.544Z,12.50
2023-02-13T18:54:30.649Z,12.40
2023-02-13T18:56:58.508Z,12.40
2023-02-13T18:59:26.505Z,12.30
2023-02-13T19:01:54.407Z,12.30
2023-02-13T19:04:22.990Z,12.30
2023-02-13T19:06:52.223Z,12.20
2023-02-13T19:09:20.091Z,12.10
2023-02-13T19:11:48.778Z,12.10
2023-02-13T19:14:19.267Z,12.00
2023-02-13T19:16:47.159Z,12.00
2023-02-13T19:19:15.003Z,11.90
2023-02-13T19:21:42.856Z,11.80
2023-02-13T19:24:15.300Z,11.80
2023-02-13T19:26:43.392Z,12.00
2023-02-13T19:29:11.259Z,11.70
2023-02-13T19:31:39.315Z,11.70
2023-02-13T19:34:07.293Z,11.60
2023-02-13T19:36:35.168Z,11.60
2023-02-13T19:39:06.243Z,11.60
2023-02-13T19:41:35.989Z,11.50
2023-02-13T19:44:08.174Z,11.50
2023-02-13T19:46:36.204Z,11.40
2023-02-13T19:49:07.119Z,11.40
2023-02-13T19:51:35.925Z,11.30
2023-02-13T19:54:05.988Z,11.30
2023-02-13T19:56:37.533Z,11.30
2023-02-13T19:59:06.932Z,11.20
2023-02-13T20:01:34.823Z,11.20
2023-02-13T20:04:02.887Z,11.10
2023-02-13T20:06:33.418Z,11.10
2023-02-13T20:09:03.732Z,11.00
2023-02-13T20:11:31.695Z,11.00
2023-02-13T20:14:01.750Z,10.90
2023-02-13T20:16:32.703Z,10.90
2023-02-13T20:19:03.734Z,10.90
2023-02-13T20:21:32.678Z,10.80
2023-02-13T20:24:02.932Z,10.80
2023-02-13T20:26:31.186Z,10.70
2023-02-13T20:29:00.496Z,11.90
2023-02-13T20:31:30.096Z,10.60
2023-02-13T20:33:58.973Z,10.60
2023-02-13T20:36:29.070Z,10.50
2023-02-13T20:38:59.585Z,10.50
2023-02-13T20:41:31.760Z,10.40
2023-02-13T20:44:02.446Z,10.40
2023-02-13T20:46:31.638Z,10.30
2023-02-13T20:48:59.545Z,10.30
2023-02-13T20:51:27.472Z,10.30
2023-02-13T20:53:55.647Z,10.20
2023-02-13T20:56:25.157Z,10.50
2023-02-13T20:58:56.254Z,10.20
2023-02-13T21:01:27.559Z,10.40
2023-02-13T21:03:56.699Z,10.10
2023-02-13T21:06:26.905Z,10.30
2023-02-13T21:08:55.066Z,10.20
2023-02-13T21:11:24.011Z,9.90
2023-02-13T21:13:52.410Z,9.90
2023-02-13T21:16:22.152Z,9.90
2023-02-13T21:18:53.592Z,9.80
2023-02-13T21:21:26.402Z,10.10
2023-02-13T21:23:54.517Z,9.80
2023-02-13T21:26:23.444Z,9.90
2023-02-13T21:28:52.644Z,9.70
2023-02-13T21:31:23.658Z,9.60
2023-02-13T21:33:52.998Z,9.60
2023-02-13T21:36:21.130Z,9.60
2023-02-13T21:38:48.925Z,9.50
2023-02-13T21:41:19.144Z,9.50
2023-02-13T21:43:50.459Z,9.50
2023-02-13T21:46:21.205Z,9.50
2023-02-13T21:48:53.187Z,9.40
2023-02-13T21:51:24.244Z,9.40
2023-02-13T21:53:53.230Z,9.30
2023-02-13T21:56:22.838Z,9.30
2023-02-13T21:58:51.533Z,9.20
2023-02-13T22:01:26.551Z,9.20
2023-02-13T22:03:59.082Z,9.50
2023-02-13T22:06:30.366Z,9.30
2023-02-13T22:08:59.333Z,9.00
2023-02-13T22:11:27.535Z,9.00
2023-02-13T22:13:57.007Z,8.90
2023-02-13T22:16:25.160Z,8.80
2023-02-13T22:18:53.239Z,8.80
2023-02-13T22:21:22.985Z,8.80
2023-02-13T22:23:53.326Z,8.80
2023-02-13T22:26:23.433Z,8.70
2023-02-13T22:28:54.138Z,8.70
2023-02-13T22:31:25.663Z,8.60
2023-02-13T22:34:03.378Z,8.60
2023-02-13T22:36:33.131Z,8.60
2023-02-13T22:39:02.369Z,8.50
2023-02-13T22:41:30.496Z,8.50
2023-02-13T22:43:58.744Z,8.50
2023-02-13T22:46:28.783Z,8.50
2023-02-13T22:48:57.042Z,8.40
2023-02-13T22:51:27.626Z,8.40
2023-02-13T22:53:56.992Z,8.40
2023-02-13T22:56:27.302Z,8.40
2023-02-13T22:58:55.286Z,8.30
2023-02-13T23:01:24.854Z,8.30
2023-02-13T23:03:52.938Z,8.30
2023-02-13T23:06:21.785Z,8.20
2023-02-13T23:08:52.328Z,8.30
2023-02-13T23:11:38.558Z,8.20
2023-02-13T23:14:07.861Z,8.20
2023-02-13T23:16:49.580Z,8.20
2023-02-13T23:19:17.734Z,8.10
2023-02-13T23:21:45.729Z,9.90
2023-02-13T23:24:13.709Z,8.10
2023-02-13T23:26:41.570Z,8.10
2023-02-13T23:29:10.873Z,8.00
2023-02-13T23:31:38.930Z,8.00
2023-02-13T23:34:09.768Z,8.10
2023-02-13T23:36:37.650Z,8.00
2023-02-13T23:39:08.810Z,8.00
2023-02-13T23:41:36.780Z,7.90
2023-02-13T23:44:04.825Z,8.40
2023-02-13T23:46:34.091Z,7.90
2023-02-13T23:49:01.924Z,7.90
2023-02-13T23:51:29.778Z,7.80
2023-02-13T23:53:57.674Z,7.80
2023-02-13T23:56:26.164Z,6.00
2023-02-13T23:58:54.275Z,10.40
